createdAt,value
2019-04-16T00:00:17.497Z,82.50
2019-04-16T00:02:27.535Z,81.95
2019-04-16T00:04:49.709Z,72.85
2019-04-16T00:07:13.468Z,74.15
2019-04-16T00:09:32.610Z,82.00
2019-04-16T00:11:42.518Z,73.05
2019-04-16T00:13:52.424Z,75.92
2019-04-16T00:15:58.445Z,66.17
2019-04-16T00:18:04.123Z,76.75
2019-04-16T00:20:10.570Z,72.92
2019-04-16T00:22:17.717Z,75.32
2019-04-16T00:24:27.836Z,67.75
2019-04-16T00:26:33.650Z,68.83
2019-04-16T00:28:40.220Z,77.03
2019-04-16T00:30:45.937Z,73.78
2019-04-16T00:32:51.532Z,74.45
2019-04-16T00:34:57.144Z,72.65
2019-04-16T00:37:02.729Z,75.67
2019-04-16T00:39:08.301Z,75.17
2019-04-16T00:41:14.445Z,81.78
2019-04-16T00:43:20.041Z,72.27
2019-04-16T00:45:25.682Z,78.87
2019-04-16T00:47:32.289Z,77.80
2019-04-16T00:49:38.170Z,78.07
2019-04-16T00:51:43.843Z,70.37
2019-04-16T00:53:49.357Z,71.33
2019-04-16T00:55:54.866Z,72.67
2019-04-16T00:58:00.395Z,66.87
2019-04-16T01:00:09.154Z,75.52
2019-04-16T01:02:15.142Z,64.30
2019-04-16T01:04:20.735Z,70.80
2019-04-16T01:06:26.355Z,62.45
2019-04-16T01:08:31.861Z,61.55
2019-04-16T01:10:37.423Z,62.38
2019-04-16T01:12:42.962Z,64.67
2019-04-16T01:14:48.473Z,66.85
2019-04-16T01:16:54.927Z,64.90
2019-04-16T01:19:00.489Z,64.27
2019-04-16T01:21:06.064Z,65.67
2019-04-16T01:23:11.712Z,59.73
2019-04-16T01:25:17.430Z,59.60
2019-04-16T01:27:28.551Z,61.25
2019-04-16T01:29:33.956Z,57.78
2019-04-16T01:31:55.918Z,58.30
2019-04-16T01:34:15.293Z,52.58
2019-04-16T01:36:24.004Z,54.40
2019-04-16T01:38:38.325Z,53.40
2019-04-16T01:40:47.370Z,62.62
2019-04-16T01:42:54.711Z,53.60
2019-04-16T01:45:00.703Z,54.42
2019-04-16T01:47:06.709Z,64.05
2019-04-16T01:49:12.230Z,56.18
2019-04-16T01:51:29.613Z,56.50
2019-04-16T01:53:35.140Z,56.77
2019-04-16T01:55:42.476Z,53.05
2019-04-16T01:57:47.937Z,60.83
2019-04-16T01:59:53.513Z,63.28
2019-04-16T02:02:00.256Z,57.48
2019-04-16T02:04:05.837Z,67.03
2019-04-16T02:06:11.627Z,59.77
2019-04-16T02:08:17.201Z,58.60
2019-04-16T02:10:22.764Z,61.00
2019-04-16T02:12:28.397Z,63.60
2019-04-16T02:14:33.980Z,66.20
2019-04-16T02:16:39.548Z,66.15
2019-04-16T02:18:45.117Z,61.10
2019-04-16T02:20:50.691Z,66.85
2019-04-16T02:22:56.274Z,61.92
2019-04-16T02:25:02.575Z,68.00
2019-04-16T02:27:27.517Z,67.47
2019-04-16T02:29:33.087Z,64.10
2019-04-16T02:31:38.609Z,67.15
2019-04-16T02:33:44.122Z,64.42
2019-04-16T02:35:49.721Z,67.55
2019-04-16T02:37:55.248Z,60.30
2019-04-16T02:40:01.052Z,59.45
2019-04-16T02:42:06.935Z,50.85
2019-04-16T02:44:15.931Z,53.70
2019-04-16T02:46:19.823Z,51.77
2019-04-16T02:48:25.345Z,54.48
2019-04-16T02:50:35.545Z,51.85
2019-04-16T02:52:51.168Z,54.95
2019-04-16T02:55:10.900Z,51.02
2019-04-16T02:57:25.808Z,54.05
2019-04-16T02:59:32.105Z,51.15
2019-04-16T03:01:42.220Z,54.10
2019-04-16T03:03:49.460Z,56.18
2019-04-16T03:06:00.697Z,54.65
2019-04-16T03:08:05.055Z,55.67
2019-04-16T03:10:13.262Z,55.35
2019-04-16T03:12:20.994Z,58.08
2019-04-16T03:14:29.720Z,64.65
2019-04-16T03:16:38.756Z,64.75
2019-04-16T03:18:47.391Z,59.65
2019-04-16T03:20:55.621Z,60.92
2019-04-16T03:23:05.161Z,63.90
2019-04-16T03:25:12.583Z,62.53
2019-04-16T03:27:15.828Z,54.18
2019-04-16T03:29:21.429Z,56.28
2019-04-16T03:31:26.961Z,55.55
2019-04-16T03:33:32.534Z,51.23
2019-04-16T03:35:38.188Z,53.23
2019-04-16T03:37:43.820Z,53.58
2019-04-16T03:39:49.336Z,55.00
2019-04-16T03:41:56.230Z,68.10
2019-04-16T03:44:04.101Z,55.60
2019-04-16T03:46:12.151Z,57.25
2019-04-16T03:48:16.500Z,62.33
2019-04-16T03:50:22.021Z,58.50
2019-04-16T03:52:27.520Z,55.38
2019-04-16T03:54:33.039Z,57.38
2019-04-16T03:56:38.600Z,54.45
2019-04-16T03:58:44.187Z,55.65
2019-04-16T04:00:49.782Z,55.15
2019-04-16T04:02:55.487Z,52.00
2019-04-16T04:05:04.347Z,52.40
2019-04-16T04:07:08.778Z,52.00
2019-04-16T04:09:18.981Z,52.38
2019-04-16T04:11:23.737Z,53.90
2019-04-16T04:13:29.323Z,57.65
2019-04-16T04:15:34.933Z,57.88
2019-04-16T04:17:40.581Z,56.83
2019-04-16T04:19:46.833Z,62.88
2019-04-16T04:21:53.696Z,62.65
2019-04-16T04:24:00.697Z,55.50
2019-04-16T04:26:08.925Z,62.03
2019-04-16T04:28:18.762Z,61.35
2019-04-16T04:30:22.556Z,68.62
2019-04-16T04:32:28.122Z,66.07
2019-04-16T04:34:33.720Z,64.82
2019-04-16T04:36:39.232Z,66.97
2019-04-16T04:38:44.743Z,65.78
2019-04-16T04:40:51.416Z,73.83
2019-04-16T04:42:57.731Z,73.42
2019-04-16T04:45:09.165Z,77.17
2019-04-16T04:47:15.536Z,69.17
2019-04-16T04:49:20.235Z,75.32
2019-04-16T04:51:25.856Z,82.17
2019-04-16T04:53:31.435Z,79.05
2019-04-16T04:55:37.959Z,88.50
2019-04-16T04:57:43.489Z,83.42
2019-04-16T04:59:49.060Z,82.72
2019-04-16T05:01:54.645Z,76.45
2019-04-16T05:04:20.624Z,77.05
2019-04-16T05:06:30.475Z,73.85
2019-04-16T05:08:35.996Z,68.30
2019-04-16T05:10:43.294Z,69.10
2019-04-16T05:12:52.605Z,68.57
2019-04-16T05:14:58.515Z,58.95
2019-04-16T05:17:03.547Z,64.50
2019-04-16T05:19:13.820Z,65.52
2019-04-16T05:21:19.002Z,56.20
2019-04-16T05:23:26.003Z,58.25
2019-04-16T05:25:34.082Z,53.30
2019-04-16T05:27:41.070Z,54.03
2019-04-16T05:29:48.879Z,53.55
2019-04-16T05:31:56.954Z,49.03
2019-04-16T05:34:02.416Z,46.53
2019-04-16T05:36:10.968Z,44.53
2019-04-16T05:38:15.200Z,46.75
2019-04-16T05:40:20.843Z,48.55
2019-04-16T05:42:26.424Z,43.38
2019-04-16T05:44:33.996Z,45.80
2019-04-16T05:46:41.778Z,43.75
2019-04-16T05:48:46.250Z,35.50
2019-04-16T05:50:51.780Z,40.33
2019-04-16T05:52:57.492Z,37.10
2019-04-16T05:55:19.297Z,37.45
2019-04-16T05:57:27.483Z,39.83
2019-04-16T05:59:34.420Z,40.60
2019-04-16T06:01:45.394Z,38.73
2019-04-16T06:03:52.870Z,38.30
2019-04-16T06:05:59.255Z,38.80
2019-04-16T06:08:10.961Z,36.03
2019-04-16T06:10:17.843Z,33.65
2019-04-16T06:12:25.584Z,32.83
2019-04-16T06:14:42.113Z,39.50
2019-04-16T06:16:49.304Z,33.98
2019-04-16T06:18:59.180Z,41.25
2019-04-16T06:21:12.211Z,37.50
2019-04-16T06:23:32.618Z,35.83
2019-04-16T06:25:41.409Z,35.60
2019-04-16T06:27:51.503Z,34.03
2019-04-16T06:30:01.205Z,31.05
2019-04-16T06:32:11.917Z,33.40
2019-04-16T06:34:25.320Z,31.00
2019-04-16T06:36:35.215Z,31.25
2019-04-16T06:38:44.849Z,29.98
2019-04-16T06:41:10.508Z,30.62
2019-04-16T06:43:25.264Z,30.43
2019-04-16T06:45:29.234Z,30.80
2019-04-16T06:47:52.548Z,31.00
2019-04-16T06:49:59.707Z,28.85
2019-04-16T06:52:16.054Z,28.70
2019-04-16T06:54:31.862Z,28.45
2019-04-16T06:56:37.393Z,30.00
2019-04-16T06:58:51.252Z,30.17
2019-04-16T07:01:06.928Z,28.15
2019-04-16T07:03:16.836Z,26.55
2019-04-16T07:05:23.990Z,28.45
2019-04-16T07:07:39.505Z,27.30
2019-04-16T07:09:41.844Z,27.65
2019-04-16T07:12:01.257Z,25.02
2019-04-16T07:14:06.855Z,23.20
2019-04-16T07:16:12.477Z,25.85
2019-04-16T07:18:20.516Z,24.67
2019-04-16T07:20:25.212Z,24.43
2019-04-16T07:22:30.777Z,25.08
2019-04-16T07:24:37.606Z,23.50
2019-04-16T07:26:47.870Z,21.52
2019-04-16T07:29:12.299Z,23.80
2019-04-16T07:31:34.247Z,18.95
2019-04-16T07:33:58.612Z,22.70
2019-04-16T07:36:24.157Z,21.35
2019-04-16T07:38:40.457Z,23.02
2019-04-16T07:40:53.572Z,20.88
2019-04-16T07:43:03.504Z,21.10
2019-04-16T07:45:26.228Z,19.87
2019-04-16T07:47:33.468Z,18.00
2019-04-16T07:49:43.660Z,17.57
2019-04-16T07:51:56.794Z,17.10
2019-04-16T07:54:03.975Z,14.95
2019-04-16T07:56:17.006Z,16.35
2019-04-16T07:58:22.528Z,14.87
2019-04-16T08:00:28.192Z,18.62
2019-04-16T08:02:33.814Z,13.13
2019-04-16T08:04:40.505Z,13.03
2019-04-16T08:06:47.233Z,17.27
2019-04-16T08:08:53.956Z,21.77
2019-04-16T08:11:00.012Z,17.52
2019-04-16T08:13:07.312Z,15.28
2019-04-16T08:15:15.249Z,13.98
2019-04-16T08:17:20.373Z,16.85
2019-04-16T08:19:36.806Z,16.48
2019-04-16T08:21:33.072Z,17.62
2019-04-16T08:23:40.234Z,16.00
2019-04-16T08:25:45.753Z,14.25
2019-04-16T08:27:54.067Z,14.28
2019-04-16T08:30:02.211Z,12.37
2019-04-16T08:32:05.936Z,11.97
2019-04-16T08:34:11.724Z,15.23
2019-04-16T08:36:17.288Z,12.10
2019-04-16T08:38:25.898Z,13.30
2019-04-16T08:40:29.993Z,14.95
2019-04-16T08:42:44.164Z,13.08
2019-04-16T08:44:42.752Z,14.40
2019-04-16T08:46:48.268Z,12.55
2019-04-16T08:48:54.344Z,11.53
2019-04-16T08:51:04.304Z,14.68
2019-04-16T08:53:13.292Z,15.72
2019-04-16T08:55:15.686Z,16.07
2019-04-16T08:57:21.213Z,13.85
2019-04-16T08:59:26.769Z,13.58
2019-04-16T09:04:02.877Z,11.78
2019-04-16T09:06:13.247Z,12.03
2019-04-16T09:08:22.173Z,10.82
2019-04-16T09:10:30.064Z,12.10
2019-04-16T09:12:34.275Z,11.55
2019-04-16T09:14:41.464Z,11.45
2019-04-16T09:16:48.665Z,10.38
2019-04-16T09:18:55.869Z,6.83
2019-04-16T09:21:01.473Z,9.35
2019-04-16T09:23:06.967Z,9.20
2019-04-16T09:25:23.261Z,10.85
2019-04-16T09:27:34.035Z,9.58
2019-04-16T09:29:51.090Z,10.18
2019-04-16T09:32:10.325Z,9.70
2019-04-16T09:34:17.478Z,9.25
2019-04-16T09:36:27.505Z,11.10
2019-04-16T09:38:45.538Z,10.90
2019-04-16T09:40:58.124Z,11.08
2019-04-16T09:43:17.525Z,10.58
2019-04-16T09:45:19.189Z,9.53
2019-04-16T09:47:24.774Z,9.23
2019-04-16T09:49:30.293Z,11.57
2019-04-16T09:51:35.927Z,10.10
2019-04-16T09:53:41.441Z,9.78
2019-04-16T09:55:47.608Z,11.00
2019-04-16T09:57:54.200Z,10.50
2019-04-16T10:00:00.975Z,9.93
2019-04-16T10:02:13.009Z,10.30
2019-04-16T10:04:20.772Z,10.88
2019-04-16T10:06:26.634Z,14.50
2019-04-16T10:08:32.177Z,10.48
2019-04-16T10:10:37.776Z,13.70
2019-04-16T10:12:43.303Z,11.43
2019-04-16T10:14:48.912Z,12.75
2019-04-16T10:16:54.519Z,12.65
2019-04-16T10:19:00.101Z,13.53
2019-04-16T10:21:05.784Z,13.65
2019-04-16T10:23:15.568Z,10.95
2019-04-16T10:25:21.104Z,9.18
2019-04-16T10:27:31.296Z,12.13
2019-04-16T10:29:35.445Z,11.10
2019-04-16T10:31:41.095Z,11.57
2019-04-16T10:33:46.698Z,13.50
2019-04-16T10:35:52.357Z,11.60
2019-04-16T10:37:59.451Z,10.23
2019-04-16T10:40:14.225Z,11.80
2019-04-16T10:42:37.383Z,10.10
2019-04-16T10:45:00.831Z,12.00
2019-04-16T10:47:16.703Z,13.15
2019-04-16T10:49:34.870Z,12.63
2019-04-16T10:51:47.591Z,11.90
2019-04-16T10:54:09.626Z,10.95
2019-04-16T10:56:32.978Z,11.55
2019-04-16T10:58:45.972Z,15.68
2019-04-16T11:01:08.336Z,14.63
2019-04-16T11:03:15.580Z,11.35
2019-04-16T11:05:25.840Z,12.93
2019-04-16T11:07:36.044Z,12.45
2019-04-16T11:09:41.729Z,10.03
2019-04-16T11:11:48.966Z,16.57
2019-04-16T11:14:00.015Z,12.25
2019-04-16T11:16:03.545Z,13.28
2019-04-16T11:18:09.459Z,13.08
2019-04-16T11:20:15.438Z,9.95
2019-04-16T11:22:21.181Z,17.82
2019-04-16T11:24:27.860Z,10.93
2019-04-16T11:26:33.576Z,10.68
2019-04-16T11:28:39.199Z,11.33
2019-04-16T11:30:48.717Z,9.63
2019-04-16T11:32:53.740Z,9.50
2019-04-16T11:34:59.306Z,12.60
2019-04-16T11:37:08.098Z,15.43
2019-04-16T11:39:12.641Z,11.18
2019-04-16T11:41:18.378Z,7.90
2019-04-16T11:43:23.973Z,9.93
2019-04-16T11:45:29.679Z,11.85
2019-04-16T11:47:35.211Z,8.88
2019-04-16T11:49:40.879Z,9.30
2019-04-16T11:51:46.491Z,10.13
2019-04-16T11:53:52.052Z,12.47
2019-04-16T11:55:57.589Z,11.18
2019-04-16T11:58:04.928Z,10.45
2019-04-16T12:00:17.676Z,13.78
2019-04-16T12:02:24.926Z,11.90
2019-04-16T12:04:48.192Z,7.90
2019-04-16T12:07:05.088Z,8.43
2019-04-16T12:09:26.991Z,13.43
2019-04-16T12:11:37.260Z,11.37
2019-04-16T12:14:04.077Z,12.45
2019-04-16T12:16:09.650Z,8.40
2019-04-16T12:18:22.591Z,95.05
2019-04-16T12:20:46.317Z,26.95
2019-04-16T12:23:09.908Z,31.80
2019-04-16T12:25:33.739Z,11.30
2019-04-16T12:27:57.320Z,396.13
2019-04-16T12:30:17.412Z,36.85
2019-04-16T12:32:41.233Z,10.55
2019-04-16T12:34:57.000Z,71.00
2019-04-16T12:37:20.504Z,45.25
2019-04-16T12:39:30.623Z,9.63
2019-04-16T12:41:37.811Z,7.67
2019-04-16T12:43:51.128Z,10.32
2019-04-16T12:46:07.015Z,76.53
2019-04-16T12:48:14.305Z,9.88
2019-04-16T12:50:33.717Z,18.40
2019-04-16T12:52:40.900Z,13.70
2019-04-16T12:54:48.064Z,37.30
2019-04-16T12:57:01.268Z,72.10
2019-04-16T12:59:22.117Z,15.63
2019-04-16T13:01:26.489Z,65.90
2019-04-16T13:03:46.602Z,16.77
2019-04-16T13:06:04.452Z,68.57
2019-04-16T13:08:17.109Z,16.00
2019-04-16T13:10:27.299Z,12.50
2019-04-16T13:12:37.509Z,19.40
2019-04-16T13:15:01.702Z,10.82
2019-04-16T13:17:23.134Z,7.75
2019-04-16T13:19:39.525Z,10.58
2019-04-16T13:21:49.656Z,10.58
2019-04-16T13:23:56.841Z,155.35
2019-04-16T13:26:11.863Z,33.90
2019-04-16T13:28:14.124Z,10.28
2019-04-16T13:30:19.773Z,5.87
2019-04-16T13:32:27.766Z,8.88
2019-04-16T13:34:33.645Z,15.05
2019-04-16T13:36:39.279Z,27.30
2019-04-16T13:39:02.909Z,8.90
2019-04-16T13:41:09.305Z,8.98
2019-04-16T13:43:25.471Z,20.68
2019-04-16T13:45:32.656Z,27.22
2019-04-16T13:47:48.626Z,8.83
2019-04-16T13:50:02.706Z,41.75
2019-04-16T13:52:05.821Z,19.27
2019-04-16T13:54:19.300Z,14.35
2019-04-16T13:56:26.595Z,21.07
2019-04-16T13:58:39.422Z,23.73
2019-04-16T14:00:46.580Z,41.42
2019-04-16T14:02:53.895Z,24.00
2019-04-16T14:05:03.136Z,19.40
2019-04-16T14:07:06.799Z,21.12
2019-04-16T14:09:12.814Z,16.00
2019-04-16T14:11:19.832Z,16.67
2019-04-16T14:13:25.715Z,14.00
2019-04-16T14:15:38.934Z,11.30
2019-04-16T14:17:51.850Z,12.58
2019-04-16T14:19:47.224Z,22.13
2019-04-16T14:21:52.836Z,13.38
2019-04-16T14:23:58.706Z,12.88
2019-04-16T14:26:04.360Z,15.98
2019-04-16T14:28:10.208Z,17.90
2019-04-16T14:30:18.569Z,26.85
2019-04-16T14:32:24.164Z,25.45
2019-04-16T14:34:34.366Z,12.58
2019-04-16T14:36:39.934Z,12.35
2019-04-16T14:38:55.924Z,30.25
2019-04-16T14:41:01.661Z,29.98
2019-04-16T14:43:07.270Z,12.05
2019-04-16T14:45:20.760Z,12.98
2019-04-16T14:47:26.297Z,10.80
2019-04-16T14:49:31.844Z,14.10
2019-04-16T14:51:37.362Z,14.78
2019-04-16T14:53:56.278Z,14.45
2019-04-16T14:56:03.445Z,21.07
2019-04-16T14:58:26.951Z,9.03
2019-04-16T15:00:51.177Z,8.95
2019-04-16T15:02:58.347Z,11.93
2019-04-16T15:05:09.886Z,15.68
2019-04-16T15:07:17.214Z,11.20
2019-04-16T15:09:27.333Z,17.37
2019-04-16T15:11:39.968Z,22.02
2019-04-16T15:13:47.164Z,16.62
2019-04-16T15:16:05.836Z,16.15
2019-04-16T15:18:18.536Z,12.75
2019-04-16T15:20:25.704Z,14.25
2019-04-16T15:22:35.584Z,17.85
2019-04-16T15:24:45.446Z,15.90
2019-04-16T15:26:58.558Z,11.28
2019-04-16T15:29:09.234Z,13.85
2019-04-16T15:31:19.203Z,28.30
2019-04-16T15:33:28.892Z,12.78
2019-04-16T15:35:38.642Z,14.93
2019-04-16T15:37:45.817Z,14.55
2019-04-16T15:40:07.029Z,19.05
2019-04-16T15:42:17.415Z,17.23
2019-04-16T15:44:31.669Z,18.52
2019-04-16T15:46:49.750Z,15.43
2019-04-16T15:49:09.319Z,15.75
2019-04-16T15:51:25.452Z,9.35
2019-04-16T15:53:38.337Z,15.38
2019-04-16T15:55:51.479Z,14.75
2019-04-16T15:58:17.059Z,13.85
2019-04-16T16:00:30.111Z,13.85
2019-04-16T16:02:55.356Z,27.75
2019-04-16T16:05:02.510Z,33.30
2019-04-16T16:07:09.222Z,31.37
2019-04-16T16:09:19.452Z,17.98
2019-04-16T16:11:38.503Z,13.08
2019-04-16T16:13:44.030Z,11.35
2019-04-16T16:15:50.665Z,10.50
2019-04-16T16:17:56.232Z,13.98
2019-04-16T16:20:01.774Z,16.52
2019-04-16T16:22:11.064Z,14.50
2019-04-16T16:24:15.139Z,12.07
2019-04-16T16:26:20.665Z,14.00
2019-04-16T16:28:26.376Z,10.75
2019-04-16T16:30:31.970Z,11.28
2019-04-16T16:32:37.597Z,11.30
2019-04-16T16:34:43.208Z,11.40
2019-04-16T16:36:48.853Z,8.83
2019-04-16T16:38:54.430Z,12.60
2019-04-16T16:41:00.042Z,10.48
2019-04-16T16:43:08.185Z,13.78
2019-04-16T16:45:12.975Z,15.15
2019-04-16T16:47:20.425Z,15.08
2019-04-16T16:49:26.084Z,15.28
2019-04-16T16:51:31.748Z,16.32
2019-04-16T16:53:38.980Z,24.47
2019-04-16T16:55:46.144Z,20.00
2019-04-16T16:57:53.401Z,39.33
2019-04-16T17:00:16.605Z,231.97
2019-04-16T17:02:38.984Z,53.55
2019-04-16T17:04:48.825Z,33.28
2019-04-16T17:06:54.402Z,29.52
2019-04-16T17:08:59.943Z,31.35
2019-04-16T17:11:15.520Z,26.93
2019-04-16T17:13:14.660Z,22.93
2019-04-16T17:15:20.233Z,24.57
2019-04-16T17:17:25.773Z,27.15
2019-04-16T17:19:31.309Z,22.87
2019-04-16T17:21:36.904Z,23.42
2019-04-16T17:23:42.585Z,20.32
2019-04-16T17:25:48.122Z,18.65
2019-04-16T17:27:53.725Z,17.30
2019-04-16T17:29:59.279Z,20.05
2019-04-16T17:32:05.046Z,18.30
2019-04-16T17:34:10.663Z,19.07
2019-04-16T17:36:16.208Z,20.92
2019-04-16T17:38:21.768Z,23.45
2019-04-16T17:40:43.974Z,15.88
2019-04-16T17:42:51.145Z,25.00
2019-04-16T17:44:58.292Z,27.58
2019-04-16T17:47:05.465Z,27.02
2019-04-16T17:49:28.767Z,32.17
2019-04-16T17:51:53.866Z,33.25
2019-04-16T17:54:10.262Z,44.30
2019-04-16T17:56:35.561Z,46.70
2019-04-16T17:58:54.971Z,46.85
2019-04-16T18:01:02.254Z,56.45
2019-04-16T18:03:18.421Z,84.03
2019-04-16T18:05:28.635Z,109.15
2019-04-16T18:07:38.616Z,46.23
2019-04-16T18:10:02.206Z,42.00
2019-04-16T18:12:11.432Z,41.55
2019-04-16T18:14:35.045Z,33.90
2019-04-16T18:16:42.306Z,27.37
2019-04-16T18:19:07.642Z,28.87
2019-04-16T18:21:14.941Z,42.75
2019-04-16T18:23:31.148Z,67.30
2019-04-16T18:25:56.652Z,130.97
2019-04-16T18:28:09.592Z,93.33
2019-04-16T18:30:25.681Z,91.63
2019-04-16T18:32:32.916Z,68.17
2019-04-16T18:34:56.368Z,92.82
2019-04-16T18:37:15.200Z,132.27
2019-04-16T18:39:38.544Z,128.18
2019-04-16T18:41:48.760Z,54.70
2019-04-16T18:44:11.187Z,49.00
2019-04-16T18:46:18.343Z,41.33
2019-04-16T18:48:25.541Z,39.23
2019-04-16T18:50:31.166Z,44.88
2019-04-16T18:52:37.651Z,55.60
2019-04-16T18:54:46.061Z,52.10
2019-04-16T18:56:50.351Z,69.37
2019-04-16T18:58:55.937Z,88.97
2019-04-16T19:01:03.106Z,110.88
2019-04-16T19:03:14.528Z,93.78
2019-04-16T19:05:16.164Z,78.65
2019-04-16T19:07:21.763Z,94.00
2019-04-16T19:09:27.385Z,111.30
2019-04-16T19:11:32.984Z,70.35
2019-04-16T19:13:38.564Z,80.32
2019-04-16T19:15:44.104Z,69.75
2019-04-16T19:17:49.704Z,49.77
2019-04-16T19:19:55.269Z,57.27
2019-04-16T19:22:00.969Z,43.90
2019-04-16T19:24:06.497Z,112.32
2019-04-16T19:26:12.061Z,181.40
2019-04-16T19:28:20.160Z,66.42
2019-04-16T19:30:24.869Z,165.90
2019-04-16T19:32:30.451Z,294.15
2019-04-16T19:34:40.909Z,220.25
2019-04-16T19:36:43.366Z,166.82
2019-04-16T19:38:48.948Z,160.20
2019-04-16T19:40:54.743Z,243.05
2019-04-16T19:43:02.542Z,143.25
2019-04-16T19:45:08.945Z,97.97
2019-04-16T19:47:14.834Z,68.87
2019-04-16T19:49:20.359Z,76.65
2019-04-16T19:51:25.913Z,80.65
2019-04-16T19:53:31.442Z,72.72
2019-04-16T19:55:36.980Z,82.35
2019-04-16T19:57:42.532Z,73.25
2019-04-16T19:59:48.135Z,135.10
2019-04-16T20:01:55.792Z,150.10
2019-04-16T20:04:01.065Z,107.43
2019-04-16T20:06:06.699Z,95.30
2019-04-16T20:08:12.289Z,98.70
2019-04-16T20:10:17.997Z,104.97
2019-04-16T20:12:25.100Z,100.27
2019-04-16T20:14:35.349Z,112.97
2019-04-16T20:16:38.001Z,98.90
2019-04-16T20:18:50.804Z,90.07
2019-04-16T20:20:50.877Z,85.60
2019-04-16T20:22:57.416Z,94.67
2019-04-16T20:25:02.935Z,97.05
2019-04-16T20:27:08.455Z,132.00
2019-04-16T20:29:14.072Z,116.33
2019-04-16T20:31:19.602Z,170.70
2019-04-16T20:33:25.135Z,110.83
2019-04-16T20:35:31.118Z,108.70
2019-04-16T20:37:36.631Z,100.25
2019-04-16T20:39:42.257Z,92.50
2019-04-16T20:41:52.771Z,76.17
2019-04-16T20:43:56.389Z,71.55
2019-04-16T20:46:01.923Z,76.42
2019-04-16T20:48:09.429Z,68.97
2019-04-16T20:50:14.740Z,71.70
2019-04-16T20:52:20.283Z,78.67
2019-04-16T20:54:25.788Z,78.05
2019-04-16T20:56:31.330Z,79.90
2019-04-16T20:58:36.852Z,71.95
2019-04-16T21:00:44.025Z,72.03
2019-04-16T21:02:51.156Z,74.92
2019-04-16T21:04:58.274Z,79.67
2019-04-16T21:07:03.937Z,104.97
2019-04-16T21:09:10.471Z,82.95
2019-04-16T21:11:17.076Z,72.17
2019-04-16T21:13:22.604Z,112.60
2019-04-16T21:15:28.388Z,95.28
2019-04-16T21:17:38.167Z,90.17
2019-04-16T21:19:46.452Z,97.75
2019-04-16T21:21:55.291Z,120.57
2019-04-16T21:23:59.122Z,123.25
2019-04-16T21:26:04.704Z,290.00
2019-04-16T21:28:17.685Z,289.72
2019-04-16T21:30:23.482Z,259.12
2019-04-16T21:32:39.762Z,149.42
2019-04-16T21:34:49.665Z,101.58
2019-04-16T21:37:13.895Z,110.40
2019-04-16T21:39:29.828Z,130.60
2019-04-16T21:41:35.423Z,174.23
2019-04-16T21:43:40.989Z,149.27
2019-04-16T21:45:48.310Z,138.00
2019-04-16T21:47:55.160Z,164.52
2019-04-16T21:50:00.957Z,157.22
2019-04-16T21:52:09.109Z,181.22
2019-04-16T21:54:14.668Z,167.18
2019-04-16T21:56:20.198Z,147.72
2019-04-16T21:58:25.726Z,117.62
2019-04-16T22:00:39.656Z,97.70
2019-04-16T22:02:46.905Z,102.97
2019-04-16T22:04:52.643Z,83.92
2019-04-16T22:06:58.290Z,75.32
2019-04-16T22:09:05.477Z,82.60
2019-04-16T22:11:12.672Z,102.17
2019-04-16T22:13:19.368Z,114.03
2019-04-16T22:15:26.106Z,126.87
2019-04-16T22:17:35.508Z,118.37
2019-04-16T22:19:53.196Z,91.87
2019-04-16T22:21:46.104Z,97.70
2019-04-16T22:23:51.696Z,78.47
2019-04-16T22:26:01.430Z,47.73
2019-04-16T22:28:08.496Z,37.45
2019-04-16T22:30:13.001Z,30.77
2019-04-16T22:32:18.539Z,29.50
2019-04-16T22:34:24.126Z,23.83
2019-04-16T22:36:29.660Z,27.15
2019-04-16T22:38:36.368Z,24.65
2019-04-16T22:40:51.693Z,27.98
2019-04-16T22:43:06.969Z,27.07
2019-04-16T22:45:19.201Z,30.00
2019-04-16T22:47:29.140Z,25.32
2019-04-16T22:49:34.687Z,23.75
2019-04-16T22:51:43.173Z,26.15
2019-04-16T22:53:49.524Z,22.55
2019-04-16T22:55:56.749Z,23.80
2019-04-16T22:58:03.525Z,14.73
2019-04-16T23:00:12.845Z,15.83
2019-04-16T23:02:27.126Z,16.62
2019-04-16T23:04:32.653Z,16.02
2019-04-16T23:06:39.016Z,13.65
2019-04-16T23:08:44.556Z,11.85
2019-04-16T23:10:51.721Z,13.98
2019-04-16T23:13:00.323Z,14.75
2019-04-16T23:15:07.916Z,12.53
2019-04-16T23:17:14.333Z,12.25
2019-04-16T23:19:21.199Z,14.78
2019-04-16T23:21:26.856Z,12.50
2019-04-16T23:23:32.387Z,13.85
2019-04-16T23:25:37.954Z,14.78
2019-04-16T23:27:43.457Z,13.40
2019-04-16T23:29:49.173Z,13.93
2019-04-16T23:31:56.071Z,11.00
2019-04-16T23:34:05.073Z,12.70
2019-04-16T23:36:15.331Z,11.88
2019-04-16T23:38:18.195Z,14.05
2019-04-16T23:40:23.705Z,11.95
2019-04-16T23:42:30.860Z,14.28
2019-04-16T23:44:40.840Z,12.45
2019-04-16T23:46:47.983Z,12.82
2019-04-16T23:48:57.889Z,13.83
2019-04-16T23:51:11.089Z,17.35
2019-04-16T23:53:24.013Z,17.60
2019-04-16T23:55:40.101Z,21.42
2019-04-16T23:57:50.016Z,16.73
